<?xml version="1.0" encoding="UTF-8" standalone="no" ?>
<gpx xmlns="http://www.topografix.com/GPX/1/1" xmlns:xsi="http://www.w3.org/2001/XMLSchema-instance" xsi:schemaLocation="http://www.topografix.com/GPX/1/1 http://www.topografix.com/GPX/1/1/gpx.xsd" version="1.1" creator="VisuGPX - https://www.visugpx.com">
  <metadata>
    <name>Les Andelys - Boucle Château Gaillard</name>
  </metadata>
  <trk>
    <name><![CDATA[boucle Château Gaillard]]></name>
    <trkseg>
      <trkpt lat="49.23915" lon="1.40638">
        <ele>114.413679</ele>
        <time>2020-09-27T14:47:11.705Z</time>
      </trkpt>
      <trkpt lat="49.23916" lon="1.40637">
        <ele>114.413679</ele>
        <time>2020-09-27T14:47:11.975Z</time>
      </trkpt>
      <trkpt lat="49.23908" lon="1.40624">
        <ele>114.413679</ele>
        <time>2020-09-27T14:47:20.264Z</time>
      </trkpt>
      <trkpt lat="49.23905" lon="1.40625">
        <ele>114.413679</ele>
        <time>2020-09-27T14:47:22.203Z</time>
      </trkpt>
      <trkpt lat="49.23901" lon="1.40627">
        <ele>114.413679</ele>
        <time>2020-09-27T14:47:25.213Z</time>
      </trkpt>
      <trkpt lat="49.23842" lon="1.40604">
        <ele>114.413679</ele>
        <time>2020-09-27T14:48:07.949Z</time>
      </trkpt>
      <trkpt lat="49.23838" lon="1.40605">
        <ele>114.413679</ele>
        <time>2020-09-27T14:48:10.382Z</time>
      </trkpt>
      <trkpt lat="49.23752" lon="1.40633">
        <ele>109.013432</ele>
        <time>2020-09-27T14:49:11.911Z</time>
      </trkpt>
      <trkpt lat="49.23746" lon="1.40629">
        <ele>108.573612</ele>
        <time>2020-09-27T14:49:16.630Z</time>
      </trkpt>
      <trkpt lat="49.23747" lon="1.40604">
        <ele>107.523843</ele>
        <time>2020-09-27T14:49:28.082Z</time>
      </trkpt>
      <trkpt lat="49.23748" lon="1.4052">
        <ele>104.009376</ele>
        <time>2020-09-27T14:50:06.227Z</time>
      </trkpt>
      <trkpt lat="49.2375" lon="1.40513">
        <ele>103.679731</ele>
        <time>2020-09-27T14:50:09.840Z</time>
      </trkpt>
      <trkpt lat="49.23758" lon="1.40474">
        <ele>101.387494</ele>
        <time>2020-09-27T14:50:28.346Z</time>
      </trkpt>
      <trkpt lat="49.23764" lon="1.40468">
        <ele>100.614602</ele>
        <time>2020-09-27T14:50:33.369Z</time>
      </trkpt>
      <trkpt lat="49.23776" lon="1.40465">
        <ele>99.208661</ele>
        <time>2020-09-27T14:50:42.442Z</time>
      </trkpt>
      <trkpt lat="49.23786" lon="1.40461">
        <ele>98.159852</ele>
        <time>2020-09-27T14:50:49.168Z</time>
      </trkpt>
      <trkpt lat="49.238" lon="1.40432">
        <ele>95.562786</ele>
        <time>2020-09-27T14:51:06.016Z</time>
      </trkpt>
      <trkpt lat="49.23821" lon="1.40392">
        <ele>91.959045</ele>
        <time>2020-09-27T14:51:29.313Z</time>
      </trkpt>
      <trkpt lat="49.23844" lon="1.40347">
        <ele>87.878761</ele>
        <time>2020-09-27T14:51:55.629Z</time>
      </trkpt>
      <trkpt lat="49.23872" lon="1.40305">
        <ele>83.607987</ele>
        <time>2020-09-27T14:52:23.112Z</time>
      </trkpt>
      <trkpt lat="49.23885" lon="1.40282">
        <ele>83.42563</ele>
        <time>2020-09-27T14:52:36.729Z</time>
      </trkpt>
      <trkpt lat="49.23884" lon="1.4028">
        <ele>83.436126</ele>
        <time>2020-09-27T14:52:37.782Z</time>
      </trkpt>
      <trkpt lat="49.2388" lon="1.40275">
        <ele>83.468989</ele>
        <time>2020-09-27T14:52:41.029Z</time>
      </trkpt>
      <trkpt lat="49.23881" lon="1.4025">
        <ele>83.585918</ele>
        <time>2020-09-27T14:52:52.662Z</time>
      </trkpt>
      <trkpt lat="49.23881" lon="1.40245">
        <ele>83.607439</ele>
        <time>2020-09-27T14:52:54.784Z</time>
      </trkpt>
      <trkpt lat="49.2388" lon="1.40245">
        <ele>83.614511</ele>
        <time>2020-09-27T14:52:55.515Z</time>
      </trkpt>
      <trkpt lat="49.23876" lon="1.40245">
        <ele>83.644753</ele>
        <time>2020-09-27T14:52:58.515Z</time>
      </trkpt>
      <trkpt lat="49.23875" lon="1.40241">
        <ele>83.664365</ele>
        <time>2020-09-27T14:53:00.496Z</time>
      </trkpt>
      <trkpt lat="49.23873" lon="1.40238">
        <ele>83.682469</ele>
        <time>2020-09-27T14:53:02.274Z</time>
      </trkpt>
      <trkpt lat="49.23876" lon="1.40233">
        <ele>83.714374</ele>
        <time>2020-09-27T14:53:05.418Z</time>
      </trkpt>
      <trkpt lat="49.23873" lon="1.40238">
        <ele>83.746279</ele>
        <time>2020-09-27T14:53:08.562Z</time>
      </trkpt>
      <trkpt lat="49.23875" lon="1.40241">
        <ele>83.764383</ele>
        <time>2020-09-27T14:53:10.339Z</time>
      </trkpt>
      <trkpt lat="49.23867" lon="1.40258">
        <ele>83.860425</ele>
        <time>2020-09-27T14:53:19.887Z</time>
      </trkpt>
      <trkpt lat="49.23857" lon="1.40255">
        <ele>83.9318</ele>
        <time>2020-09-27T14:53:23.808Z</time>
      </trkpt>
      <trkpt lat="49.23848" lon="1.40254">
        <ele>83.995196</ele>
        <time>2020-09-27T14:53:26.793Z</time>
      </trkpt>
      <trkpt lat="49.23846" lon="1.40273">
        <ele>84.084786</ele>
        <time>2020-09-27T14:53:32.586Z</time>
      </trkpt>
      <trkpt lat="49.23846" lon="1.40283">
        <ele>84.13149</ele>
        <time>2020-09-27T14:53:39.025Z</time>
      </trkpt>
      <trkpt lat="49.23844" lon="1.40288">
        <ele>84.159916</ele>
        <time>2020-09-27T14:53:42.354Z</time>
      </trkpt>
      <trkpt lat="49.23834" lon="1.40306">
        <ele>84.263421</ele>
        <time>2020-09-27T14:53:47.726Z</time>
      </trkpt>
      <trkpt lat="49.23825" lon="1.4032">
        <ele>84.352251</ele>
        <time>2020-09-27T14:53:54.903Z</time>
      </trkpt>
      <trkpt lat="49.23815" lon="1.40327">
        <ele>84.430571</ele>
        <time>2020-09-27T14:54:05.407Z</time>
      </trkpt>
      <trkpt lat="49.23804" lon="1.40331">
        <ele>84.510866</ele>
        <time>2020-09-27T14:54:12.135Z</time>
      </trkpt>
      <trkpt lat="49.23796" lon="1.40331">
        <ele>84.568373</ele>
        <time>2020-09-27T14:54:19.654Z</time>
      </trkpt>
      <trkpt lat="49.23792" lon="1.40331">
        <ele>84.809181</ele>
        <time>2020-09-27T14:54:23.274Z</time>
      </trkpt>
      <trkpt lat="49.23788" lon="1.40336">
        <ele>85.135478</ele>
        <time>2020-09-27T14:54:28.177Z</time>
      </trkpt>
      <trkpt lat="49.23785" lon="1.40339">
        <ele>85.402942</ele>
        <time>2020-09-27T14:54:34.130Z</time>
      </trkpt>
      <trkpt lat="49.23785" lon="1.4035">
        <ele>85.882398</ele>
        <time>2020-09-27T14:54:38.075Z</time>
      </trkpt>
      <trkpt lat="49.23784" lon="1.40355">
        <ele>86.124972</ele>
        <time>2020-09-27T14:54:40.786Z</time>
      </trkpt>
      <trkpt lat="49.23778" lon="1.40355">
        <ele>86.550473</ele>
        <time>2020-09-27T14:54:45.181Z</time>
      </trkpt>
      <trkpt lat="49.23762" lon="1.40345">
        <ele>87.692283</ele>
        <time>2020-09-27T14:54:57.063Z</time>
      </trkpt>
      <trkpt lat="49.23754" lon="1.40348">
        <ele>88.20275</ele>
        <time>2020-09-27T14:55:02.357Z</time>
      </trkpt>
      <trkpt lat="49.23752" lon="1.40353">
        <ele>88.512978</ele>
        <time>2020-09-27T14:55:05.540Z</time>
      </trkpt>
      <trkpt lat="49.2375" lon="1.40353">
        <ele>88.587207</ele>
        <time>2020-09-27T14:55:06.318Z</time>
      </trkpt>
      <trkpt lat="49.2375" lon="1.40352">
        <ele>88.657228</ele>
        <time>2020-09-27T14:55:07.036Z</time>
      </trkpt>
      <trkpt lat="49.23746" lon="1.40342">
        <ele>89.183899</ele>
        <time>2020-09-27T14:55:16.751Z</time>
      </trkpt>
      <trkpt lat="49.23744" lon="1.40344">
        <ele>89.343906</ele>
        <time>2020-09-27T14:55:18.407Z</time>
      </trkpt>
      <trkpt lat="49.23744" lon="1.40346">
        <ele>89.465636</ele>
        <time>2020-09-27T14:55:20.012Z</time>
      </trkpt>
      <trkpt lat="49.23746" lon="1.4035">
        <ele>89.649776</ele>
        <time>2020-09-27T14:55:22.576Z</time>
      </trkpt>
      <trkpt lat="49.23743" lon="1.40353">
        <ele>89.918598</ele>
        <time>2020-09-27T14:55:25.646Z</time>
      </trkpt>
      <trkpt lat="49.23742" lon="1.40356">
        <ele>90.070678</ele>
        <time>2020-09-27T14:55:27.321Z</time>
      </trkpt>
      <trkpt lat="49.23735" lon="1.40391">
        <ele>91.66084</ele>
        <time>2020-09-27T14:55:43.804Z</time>
      </trkpt>
      <trkpt lat="49.23735" lon="1.4043">
        <ele>93.376188</ele>
        <time>2020-09-27T14:56:01.594Z</time>
      </trkpt>
      <trkpt lat="49.23737" lon="1.40446">
        <ele>94.096817</ele>
        <time>2020-09-27T14:56:09.061Z</time>
      </trkpt>
      <trkpt lat="49.23727" lon="1.40454">
        <ele>94.860772</ele>
        <time>2020-09-27T14:56:19.196Z</time>
      </trkpt>
      <trkpt lat="49.23697" lon="1.40452">
        <ele>96.747044</ele>
        <time>2020-09-27T14:56:37.021Z</time>
      </trkpt>
      <trkpt lat="49.23687" lon="1.40435">
        <ele>97.075256</ele>
        <time>2020-09-27T14:56:47.418Z</time>
      </trkpt>
      <trkpt lat="49.23705" lon="1.40425">
        <ele>97.517947</ele>
        <time>2020-09-27T14:56:58.691Z</time>
      </trkpt>
      <trkpt lat="49.2369" lon="1.40407">
        <ele>97.958322</ele>
        <time>2020-09-27T14:57:11.488Z</time>
      </trkpt>
      <trkpt lat="49.2368" lon="1.40379">
        <ele>98.421835</ele>
        <time>2020-09-27T14:57:23.747Z</time>
      </trkpt>
      <trkpt lat="49.23659" lon="1.40368">
        <ele>98.92404</ele>
        <time>2020-09-27T14:57:34.843Z</time>
      </trkpt>
      <trkpt lat="49.2363" lon="1.40343">
        <ele>99.677477</ele>
        <time>2020-09-27T14:57:49.686Z</time>
      </trkpt>
      <trkpt lat="49.2362" lon="1.40342">
        <ele>99.897659</ele>
        <time>2020-09-27T14:57:53.365Z</time>
      </trkpt>
      <trkpt lat="49.23612" lon="1.40331">
        <ele>100.124828</ele>
        <time>2020-09-27T14:57:57.200Z</time>
      </trkpt>
      <trkpt lat="49.23612" lon="1.40331">
        <ele>100.124828</ele>
        <time>2020-09-27T14:57:57.212Z</time>
      </trkpt>
      <trkpt lat="49.23608" lon="1.40344">
        <ele>100.330552</ele>
        <time>2020-09-27T14:58:01.243Z</time>
      </trkpt>
      <trkpt lat="49.23621" lon="1.40386">
        <ele>100.217309</ele>
        <time>2020-09-27T14:58:15.831Z</time>
      </trkpt>
      <trkpt lat="49.2362" lon="1.40405">
        <ele>99.710806</ele>
        <time>2020-09-27T14:58:19.549Z</time>
      </trkpt>
      <trkpt lat="49.23608" lon="1.40413">
        <ele>99.176426</ele>
        <time>2020-09-27T14:58:25.102Z</time>
      </trkpt>
      <trkpt lat="49.23581" lon="1.40398">
        <ele>98.029721</ele>
        <time>2020-09-27T14:58:34.254Z</time>
      </trkpt>
      <trkpt lat="49.23574" lon="1.40402">
        <ele>97.727588</ele>
        <time>2020-09-27T14:58:36.927Z</time>
      </trkpt>
      <trkpt lat="49.23557" lon="1.40383">
        <ele>96.870033</ele>
        <time>2020-09-27T14:58:43.157Z</time>
      </trkpt>
      <trkpt lat="49.23551" lon="1.40389">
        <ele>96.603453</ele>
        <time>2020-09-27T14:58:45.339Z</time>
      </trkpt>
      <trkpt lat="49.23554" lon="1.40434">
        <ele>95.432399</ele>
        <time>2020-09-27T14:58:53.714Z</time>
      </trkpt>
      <trkpt lat="49.23565" lon="1.40475">
        <ele>94.257358</ele>
        <time>2020-09-27T14:59:02.541Z</time>
      </trkpt>
      <trkpt lat="49.2356" lon="1.40471">
        <ele>94.048549</ele>
        <time>2020-09-27T14:59:03.765Z</time>
      </trkpt>
      <trkpt lat="49.23549" lon="1.40461">
        <ele>93.521418</ele>
        <time>2020-09-27T14:59:07.430Z</time>
      </trkpt>
      <trkpt lat="49.23547" lon="1.40438">
        <ele>91.332964</ele>
        <time>2020-09-27T14:59:11.757Z</time>
      </trkpt>
      <trkpt lat="49.23534" lon="1.404">
        <ele>87.295475</ele>
        <time>2020-09-27T14:59:18.730Z</time>
      </trkpt>
      <trkpt lat="49.23528" lon="1.40399">
        <ele>86.33746</ele>
        <time>2020-09-27T14:59:20.464Z</time>
      </trkpt>
      <trkpt lat="49.23507" lon="1.40425">
        <ele>82.399484</ele>
        <time>2020-09-27T14:59:27.048Z</time>
      </trkpt>
      <trkpt lat="49.23479" lon="1.40437">
        <ele>78.213929</ele>
        <time>2020-09-27T14:59:33.970Z</time>
      </trkpt>
      <trkpt lat="49.23467" lon="1.4042">
        <ele>75.806167</ele>
        <time>2020-09-27T14:59:38.022Z</time>
      </trkpt>
      <trkpt lat="49.23455" lon="1.40388">
        <ele>72.268969</ele>
        <time>2020-09-27T14:59:43.681Z</time>
      </trkpt>
      <trkpt lat="49.23436" lon="1.40309">
        <ele>63.849306</ele>
        <time>2020-09-27T14:59:56.724Z</time>
      </trkpt>
      <trkpt lat="49.23445" lon="1.40255">
        <ele>58.083889</ele>
        <time>2020-09-27T15:00:05.180Z</time>
      </trkpt>
      <trkpt lat="49.23453" lon="1.40238">
        <ele>55.853647</ele>
        <time>2020-09-27T15:00:08.392Z</time>
      </trkpt>
      <trkpt lat="49.23439" lon="1.40239">
        <ele>53.582471</ele>
        <time>2020-09-27T15:00:11.914Z</time>
      </trkpt>
      <trkpt lat="49.23455" lon="1.40215">
        <ele>50.00754</ele>
        <time>2020-09-27T15:00:17.141Z</time>
      </trkpt>
      <trkpt lat="49.23443" lon="1.40209">
        <ele>48.048324</ele>
        <time>2020-09-27T15:00:20.285Z</time>
      </trkpt>
      <trkpt lat="49.23444" lon="1.40197">
        <ele>46.867702</ele>
        <time>2020-09-27T15:00:22.137Z</time>
      </trkpt>
      <trkpt lat="49.23442" lon="1.40172">
        <ele>44.187546</ele>
        <time>2020-09-27T15:00:26.083Z</time>
      </trkpt>
      <trkpt lat="49.23493" lon="1.40175">
        <ele>37.069561</ele>
        <time>2020-09-27T15:00:33.377Z</time>
      </trkpt>
      <trkpt lat="49.23581" lon="1.4017">
        <ele>29.991094</ele>
        <time>2020-09-27T15:00:46.011Z</time>
      </trkpt>
      <trkpt lat="49.23596" lon="1.40169">
        <ele>28.743449</ele>
        <time>2020-09-27T15:00:48.487Z</time>
      </trkpt>
      <trkpt lat="49.23648" lon="1.40165">
        <ele>24.551756</ele>
        <time>2020-09-27T15:00:56.844Z</time>
      </trkpt>
      <trkpt lat="49.23655" lon="1.40162">
        <ele>23.965475</ele>
        <time>2020-09-27T15:00:58.054Z</time>
      </trkpt>
      <trkpt lat="49.23675" lon="1.40144">
        <ele>22.811948</ele>
        <time>2020-09-27T15:01:01.703Z</time>
      </trkpt>
      <trkpt lat="49.23679" lon="1.40149">
        <ele>22.537674</ele>
        <time>2020-09-27T15:01:02.668Z</time>
      </trkpt>
      <trkpt lat="49.23697" lon="1.40149">
        <ele>21.742263</ele>
        <time>2020-09-27T15:01:05.585Z</time>
      </trkpt>
      <trkpt lat="49.23701" lon="1.40143">
        <ele>21.46577</ele>
        <time>2020-09-27T15:01:06.571Z</time>
      </trkpt>
      <trkpt lat="49.23704" lon="1.40135">
        <ele>21.212012</ele>
        <time>2020-09-27T15:01:07.397Z</time>
      </trkpt>
      <trkpt lat="49.23705" lon="1.40127">
        <ele>20.957824</ele>
        <time>2020-09-27T15:01:08.275Z</time>
      </trkpt>
      <trkpt lat="49.23705" lon="1.40118">
        <ele>20.70069</ele>
        <time>2020-09-27T15:01:09.169Z</time>
      </trkpt>
      <trkpt lat="49.23702" lon="1.40111">
        <ele>20.456743</ele>
        <time>2020-09-27T15:01:10.065Z</time>
      </trkpt>
      <trkpt lat="49.23694" lon="1.40101">
        <ele>19.973179</ele>
        <time>2020-09-27T15:01:11.869Z</time>
      </trkpt>
      <trkpt lat="49.23689" lon="1.40099">
        <ele>19.727119</ele>
        <time>2020-09-27T15:01:12.680Z</time>
      </trkpt>
      <trkpt lat="49.23687" lon="1.40073">
        <ele>18.947172</ele>
        <time>2020-09-27T15:01:15.355Z</time>
      </trkpt>
      <trkpt lat="49.23684" lon="1.40049">
        <ele>18.224178</ele>
        <time>2020-09-27T15:01:17.955Z</time>
      </trkpt>
      <trkpt lat="49.23635" lon="1.3973">
        <ele>10.730569</ele>
        <time>2020-09-27T15:01:54.396Z</time>
      </trkpt>
      <trkpt lat="49.23639" lon="1.39729">
        <ele>10.618664</ele>
        <time>2020-09-27T15:01:58.965Z</time>
      </trkpt>
      <trkpt lat="49.23647" lon="1.39776">
        <ele>9.884998</ele>
        <time>2020-09-27T15:02:20.844Z</time>
      </trkpt>
      <trkpt lat="49.23636" lon="1.39778">
        <ele>9.817138</ele>
        <time>2020-09-27T15:02:23.191Z</time>
      </trkpt>
      <trkpt lat="49.23631" lon="1.39778">
        <ele>9.785412</ele>
        <time>2020-09-27T15:02:24.248Z</time>
      </trkpt>
      <trkpt lat="49.23629" lon="1.39775">
        <ele>9.766911</ele>
        <time>2020-09-27T15:02:24.877Z</time>
      </trkpt>
      <trkpt lat="49.23621" lon="1.39787">
        <ele>9.699963</ele>
        <time>2020-09-27T15:02:28.527Z</time>
      </trkpt>
      <trkpt lat="49.23549" lon="1.39779">
        <ele>9.25386</ele>
        <time>2020-09-27T15:02:54.103Z</time>
      </trkpt>
      <trkpt lat="49.23475" lon="1.39734">
        <ele>8.939173</ele>
        <time>2020-09-27T15:03:25.444Z</time>
      </trkpt>
      <trkpt lat="49.23443" lon="1.397">
        <ele>9.328352</ele>
        <time>2020-09-27T15:03:42.818Z</time>
      </trkpt>
      <trkpt lat="49.23376" lon="1.39594">
        <ele>10.278267</ele>
        <time>2020-09-27T15:04:26.523Z</time>
      </trkpt>
      <trkpt lat="49.2336" lon="1.39539">
        <ele>10.661815</ele>
        <time>2020-09-27T15:04:43.998Z</time>
      </trkpt>
      <trkpt lat="49.2334" lon="1.39516">
        <ele>10.898207</ele>
        <time>2020-09-27T15:04:55.379Z</time>
      </trkpt>
      <trkpt lat="49.23326" lon="1.39494">
        <ele>11.084634</ele>
        <time>2020-09-27T15:05:04.003Z</time>
      </trkpt>
      <trkpt lat="49.23252" lon="1.39449">
        <ele>11.82917</ele>
        <time>2020-09-27T15:05:39.143Z</time>
      </trkpt>
      <trkpt lat="49.23228" lon="1.3945">
        <ele>12.05285</ele>
        <time>2020-09-27T15:05:49.428Z</time>
      </trkpt>
      <trkpt lat="49.23198" lon="1.39435">
        <ele>12.32888</ele>
        <time>2020-09-27T15:06:03.146Z</time>
      </trkpt>
      <trkpt lat="49.23169" lon="1.39428">
        <ele>12.505105</ele>
        <time>2020-09-27T15:06:15.418Z</time>
      </trkpt>
      <trkpt lat="49.23069" lon="1.39366">
        <ele>13.149922</ele>
        <time>2020-09-27T15:07:00.866Z</time>
      </trkpt>
      <trkpt lat="49.22958" lon="1.39361">
        <ele>13.322386</ele>
        <time>2020-09-27T15:07:45.200Z</time>
      </trkpt>
      <trkpt lat="49.22942" lon="1.39344">
        <ele>13.311392</ele>
        <time>2020-09-27T15:07:52.503Z</time>
      </trkpt>
      <trkpt lat="49.22902" lon="1.39295">
        <ele>13.282422</ele>
        <time>2020-09-27T15:08:11.637Z</time>
      </trkpt>
      <trkpt lat="49.22801" lon="1.39296">
        <ele>13.001175</ele>
        <time>2020-09-27T15:08:48.376Z</time>
      </trkpt>
      <trkpt lat="49.22765" lon="1.39285">
        <ele>12.858181</ele>
        <time>2020-09-27T15:09:01.598Z</time>
      </trkpt>
      <trkpt lat="49.2272" lon="1.39255">
        <ele>12.667604</ele>
        <time>2020-09-27T15:09:19.494Z</time>
      </trkpt>
      <trkpt lat="49.2267" lon="1.39199">
        <ele>12.467775</ele>
        <time>2020-09-27T15:09:43.488Z</time>
      </trkpt>
      <trkpt lat="49.2266" lon="1.39199">
        <ele>12.442222</ele>
        <time>2020-09-27T15:09:47.423Z</time>
      </trkpt>
      <trkpt lat="49.22629" lon="1.39172">
        <ele>12.348553</ele>
        <time>2020-09-27T15:10:01.303Z</time>
      </trkpt>
      <trkpt lat="49.22578" lon="1.39113">
        <ele>12.180454</ele>
        <time>2020-09-27T15:10:25.018Z</time>
      </trkpt>
      <trkpt lat="49.22531" lon="1.39053">
        <ele>11.807913</ele>
        <time>2020-09-27T15:10:47.042Z</time>
      </trkpt>
      <trkpt lat="49.22514" lon="1.39049">
        <ele>11.611656</ele>
        <time>2020-09-27T15:10:52.989Z</time>
      </trkpt>
      <trkpt lat="49.22502" lon="1.39018">
        <ele>11.350786</ele>
        <time>2020-09-27T15:11:01.704Z</time>
      </trkpt>
      <trkpt lat="49.22491" lon="1.39007">
        <ele>11.200645</ele>
        <time>2020-09-27T15:11:06.138Z</time>
      </trkpt>
      <trkpt lat="49.22486" lon="1.39005">
        <ele>11.147154</ele>
        <time>2020-09-27T15:11:07.759Z</time>
      </trkpt>
      <trkpt lat="49.22465" lon="1.39001">
        <ele>10.914212</ele>
        <time>2020-09-27T15:11:15.290Z</time>
      </trkpt>
      <trkpt lat="49.22458" lon="1.38992">
        <ele>10.812033</ele>
        <time>2020-09-27T15:11:18.266Z</time>
      </trkpt>
      <trkpt lat="49.22434" lon="1.38967">
        <ele>10.491794</ele>
        <time>2020-09-27T15:11:28.331Z</time>
      </trkpt>
      <trkpt lat="49.22382" lon="1.38888">
        <ele>9.775722</ele>
        <time>2020-09-27T15:11:53.049Z</time>
      </trkpt>
      <trkpt lat="49.22365" lon="1.38858">
        <ele>9.556642</ele>
        <time>2020-09-27T15:12:01.942Z</time>
      </trkpt>
      <trkpt lat="49.22358" lon="1.38849">
        <ele>9.481374</ele>
        <time>2020-09-27T15:12:05.175Z</time>
      </trkpt>
      <trkpt lat="49.22306" lon="1.38751">
        <ele>8.788277</ele>
        <time>2020-09-27T15:12:35.330Z</time>
      </trkpt>
      <trkpt lat="49.22208" lon="1.38519">
        <ele>8.217831</ele>
        <time>2020-09-27T15:13:42.762Z</time>
      </trkpt>
      <trkpt lat="49.22061" lon="1.38259">
        <ele>7.998992</ele>
        <time>2020-09-27T15:15:07.231Z</time>
      </trkpt>
      <trkpt lat="49.2203" lon="1.38208">
        <ele>8.233317</ele>
        <time>2020-09-27T15:15:25.357Z</time>
      </trkpt>
      <trkpt lat="49.21987" lon="1.38132">
        <ele>8.57127</ele>
        <time>2020-09-27T15:15:52.677Z</time>
      </trkpt>
      <trkpt lat="49.21875" lon="1.37946">
        <ele>9.927959</ele>
        <time>2020-09-27T15:17:05.848Z</time>
      </trkpt>
      <trkpt lat="49.21812" lon="1.37711">
        <ele>11.23712</ele>
        <time>2020-09-27T15:18:17.576Z</time>
      </trkpt>
      <trkpt lat="49.21804" lon="1.37669">
        <ele>11.433156</ele>
        <time>2020-09-27T15:18:29.235Z</time>
      </trkpt>
      <trkpt lat="49.21801" lon="1.37643">
        <ele>11.553948</ele>
        <time>2020-09-27T15:18:36.716Z</time>
      </trkpt>
      <trkpt lat="49.21796" lon="1.37641">
        <ele>11.58689</ele>
        <time>2020-09-27T15:18:37.865Z</time>
      </trkpt>
      <trkpt lat="49.21752" lon="1.37564">
        <ele>12.034234</ele>
        <time>2020-09-27T15:18:56.479Z</time>
      </trkpt>
      <trkpt lat="49.21726" lon="1.3751">
        <ele>12.325964</ele>
        <time>2020-09-27T15:19:08.698Z</time>
      </trkpt>
      <trkpt lat="49.21706" lon="1.37468">
        <ele>12.549906</ele>
        <time>2020-09-27T15:19:18.345Z</time>
      </trkpt>
      <trkpt lat="49.21663" lon="1.37387">
        <ele>12.992841</ele>
        <time>2020-09-27T15:19:37.714Z</time>
      </trkpt>
      <trkpt lat="49.21623" lon="1.37333">
        <ele>13.321869</ele>
        <time>2020-09-27T15:19:53.530Z</time>
      </trkpt>
      <trkpt lat="49.21589" lon="1.37258">
        <ele>13.687145</ele>
        <time>2020-09-27T15:20:10.785Z</time>
      </trkpt>
      <trkpt lat="49.21527" lon="1.3714">
        <ele>14.055621</ele>
        <time>2020-09-27T15:20:36.898Z</time>
      </trkpt>
      <trkpt lat="49.21518" lon="1.37115">
        <ele>14.054379</ele>
        <time>2020-09-27T15:20:41.676Z</time>
      </trkpt>
      <trkpt lat="49.21507" lon="1.3709">
        <ele>14.053084</ele>
        <time>2020-09-27T15:20:46.374Z</time>
      </trkpt>
      <trkpt lat="49.21463" lon="1.36993">
        <ele>14.048003</ele>
        <time>2020-09-27T15:21:04.805Z</time>
      </trkpt>
      <trkpt lat="49.21281" lon="1.36816">
        <ele>13.752647</ele>
        <time>2020-09-27T15:21:55.506Z</time>
      </trkpt>
      <trkpt lat="49.21228" lon="1.36725">
        <ele>13.760355</ele>
        <time>2020-09-27T15:22:14.949Z</time>
      </trkpt>
      <trkpt lat="49.21169" lon="1.3658">
        <ele>13.758179</ele>
        <time>2020-09-27T15:22:42.665Z</time>
      </trkpt>
      <trkpt lat="49.21141" lon="1.36482">
        <ele>13.722813</ele>
        <time>2020-09-27T15:22:59.718Z</time>
      </trkpt>
      <trkpt lat="49.21099" lon="1.36269">
        <ele>13.594914</ele>
        <time>2020-09-27T15:23:34.481Z</time>
      </trkpt>
      <trkpt lat="49.21027" lon="1.35986">
        <ele>13.44519</ele>
        <time>2020-09-27T15:24:21.833Z</time>
      </trkpt>
      <trkpt lat="49.20966" lon="1.35744">
        <ele>13.6042</ele>
        <time>2020-09-27T15:25:04.349Z</time>
      </trkpt>
      <trkpt lat="49.20842" lon="1.35383">
        <ele>14.176215</ele>
        <time>2020-09-27T15:26:12.509Z</time>
      </trkpt>
      <trkpt lat="49.20726" lon="1.35065">
        <ele>15.00137</ele>
        <time>2020-09-27T15:27:16.064Z</time>
      </trkpt>
      <trkpt lat="49.20654" lon="1.34905">
        <ele>15.194091</ele>
        <time>2020-09-27T15:27:48.921Z</time>
      </trkpt>
      <trkpt lat="49.20517" lon="1.34632">
        <ele>14.418163</ele>
        <time>2020-09-27T15:28:40.673Z</time>
      </trkpt>
      <trkpt lat="49.20424" lon="1.34472">
        <ele>13.590072</ele>
        <time>2020-09-27T15:29:11.745Z</time>
      </trkpt>
      <trkpt lat="49.20118" lon="1.34">
        <ele>11.986246</ele>
        <time>2020-09-27T15:30:52.133Z</time>
      </trkpt>
      <trkpt lat="49.20086" lon="1.33962">
        <ele>11.896166</ele>
        <time>2020-09-27T15:31:01.603Z</time>
      </trkpt>
      <trkpt lat="49.19861" lon="1.33703">
        <ele>11.542054</ele>
        <time>2020-09-27T15:32:08.800Z</time>
      </trkpt>
      <trkpt lat="49.19614" lon="1.33511">
        <ele>11.591217</ele>
        <time>2020-09-27T15:33:17.011Z</time>
      </trkpt>
      <trkpt lat="49.19534" lon="1.33458">
        <ele>11.623647</ele>
        <time>2020-09-27T15:33:38.189Z</time>
      </trkpt>
      <trkpt lat="49.19419" lon="1.33401">
        <ele>11.697919</ele>
        <time>2020-09-27T15:34:08.120Z</time>
      </trkpt>
      <trkpt lat="49.19256" lon="1.3335">
        <ele>11.743423</ele>
        <time>2020-09-27T15:34:48.681Z</time>
      </trkpt>
      <trkpt lat="49.19201" lon="1.33339">
        <ele>11.750432</ele>
        <time>2020-09-27T15:35:02.242Z</time>
      </trkpt>
      <trkpt lat="49.1916" lon="1.33339">
        <ele>11.737955</ele>
        <time>2020-09-27T15:35:12.000Z</time>
      </trkpt>
      <trkpt lat="49.19109" lon="1.33345">
        <ele>11.72238</ele>
        <time>2020-09-27T15:35:24.041Z</time>
      </trkpt>
      <trkpt lat="49.19109" lon="1.33345">
        <ele>11.722257</ele>
        <time>2020-09-27T15:35:24.386Z</time>
      </trkpt>
      <trkpt lat="49.19027" lon="1.33369">
        <ele>11.707054</ele>
        <time>2020-09-27T15:35:44.461Z</time>
      </trkpt>
      <trkpt lat="49.18946" lon="1.33416">
        <ele>12.056432</ele>
        <time>2020-09-27T15:36:07.187Z</time>
      </trkpt>
      <trkpt lat="49.18943" lon="1.33415">
        <ele>12.068313</ele>
        <time>2020-09-27T15:36:07.835Z</time>
      </trkpt>
      <trkpt lat="49.18934" lon="1.33423">
        <ele>12.111314</ele>
        <time>2020-09-27T15:36:12.453Z</time>
      </trkpt>
      <trkpt lat="49.18887" lon="1.33424">
        <ele>12.300092</ele>
        <time>2020-09-27T15:36:31.863Z</time>
      </trkpt>
      <trkpt lat="49.18876" lon="1.33416">
        <ele>12.350035</ele>
        <time>2020-09-27T15:36:36.968Z</time>
      </trkpt>
      <trkpt lat="49.18861" lon="1.33415">
        <ele>12.410165</ele>
        <time>2020-09-27T15:36:43.342Z</time>
      </trkpt>
      <trkpt lat="49.18668" lon="1.33551">
        <ele>13.44518</ele>
        <time>2020-09-27T15:38:12.054Z</time>
      </trkpt>
      <trkpt lat="49.18625" lon="1.33626">
        <ele>13.413933</ele>
        <time>2020-09-27T15:38:37.178Z</time>
      </trkpt>
      <trkpt lat="49.18516" lon="1.3373">
        <ele>13.260068</ele>
        <time>2020-09-27T15:39:24.468Z</time>
      </trkpt>
      <trkpt lat="49.18491" lon="1.33763">
        <ele>13.172413</ele>
        <time>2020-09-27T15:39:36.626Z</time>
      </trkpt>
      <trkpt lat="49.18394" lon="1.33913">
        <ele>12.932204</ele>
        <time>2020-09-27T15:40:28.241Z</time>
      </trkpt>
      <trkpt lat="49.18379" lon="1.33936">
        <ele>12.953143</ele>
        <time>2020-09-27T15:40:36.562Z</time>
      </trkpt>
      <trkpt lat="49.18346" lon="1.34004">
        <ele>13.006752</ele>
        <time>2020-09-27T15:40:57.813Z</time>
      </trkpt>
      <trkpt lat="49.18226" lon="1.34248">
        <ele>13.409518</ele>
        <time>2020-09-27T15:42:17.194Z</time>
      </trkpt>
      <trkpt lat="49.18101" lon="1.34523">
        <ele>13.811741</ele>
        <time>2020-09-27T15:43:44.408Z</time>
      </trkpt>
      <trkpt lat="49.17977" lon="1.34854">
        <ele>13.054261</ele>
        <time>2020-09-27T15:45:16.029Z</time>
      </trkpt>
      <trkpt lat="49.17965" lon="1.34891">
        <ele>13.004125</ele>
        <time>2020-09-27T15:45:26.141Z</time>
      </trkpt>
      <trkpt lat="49.17963" lon="1.34897">
        <ele>12.995944</ele>
        <time>2020-09-27T15:45:27.864Z</time>
      </trkpt>
      <trkpt lat="49.17957" lon="1.34917">
        <ele>12.97027</ele>
        <time>2020-09-27T15:45:33.059Z</time>
      </trkpt>
      <trkpt lat="49.1794" lon="1.34981">
        <ele>12.88699</ele>
        <time>2020-09-27T15:45:50.244Z</time>
      </trkpt>
      <trkpt lat="49.17888" lon="1.35127">
        <ele>13.22482</ele>
        <time>2020-09-27T15:46:33.271Z</time>
      </trkpt>
      <trkpt lat="49.17844" lon="1.35282">
        <ele>13.792359</ele>
        <time>2020-09-27T15:47:20.378Z</time>
      </trkpt>
      <trkpt lat="49.17825" lon="1.35345">
        <ele>14.102142</ele>
        <time>2020-09-27T15:47:39.773Z</time>
      </trkpt>
      <trkpt lat="49.17775" lon="1.35303">
        <ele>14.495387</ele>
        <time>2020-09-27T15:48:04.408Z</time>
      </trkpt>
      <trkpt lat="49.1773" lon="1.35254">
        <ele>14.871891</ele>
        <time>2020-09-27T15:48:27.570Z</time>
      </trkpt>
      <trkpt lat="49.17689" lon="1.35238">
        <ele>14.893412</ele>
        <time>2020-09-27T15:48:44.835Z</time>
      </trkpt>
      <trkpt lat="49.17674" lon="1.35235">
        <ele>14.859206</ele>
        <time>2020-09-27T15:48:51.269Z</time>
      </trkpt>
      <trkpt lat="49.17665" lon="1.35231">
        <ele>14.838514</ele>
        <time>2020-09-27T15:48:54.143Z</time>
      </trkpt>
      <trkpt lat="49.17656" lon="1.35224">
        <ele>14.815748</ele>
        <time>2020-09-27T15:48:57.230Z</time>
      </trkpt>
      <trkpt lat="49.17663" lon="1.35215">
        <ele>14.796157</ele>
        <time>2020-09-27T15:48:59.467Z</time>
      </trkpt>
      <trkpt lat="49.17669" lon="1.35196">
        <ele>14.765347</ele>
        <time>2020-09-27T15:49:02.649Z</time>
      </trkpt>
      <trkpt lat="49.17683" lon="1.35204">
        <ele>14.732146</ele>
        <time>2020-09-27T15:49:05.901Z</time>
      </trkpt>
      <trkpt lat="49.17754" lon="1.35252">
        <ele>14.553274</ele>
        <time>2020-09-27T15:49:22.468Z</time>
      </trkpt>
      <trkpt lat="49.17831" lon="1.35311">
        <ele>13.511861</ele>
        <time>2020-09-27T15:49:39.265Z</time>
      </trkpt>
      <trkpt lat="49.18001" lon="1.35442">
        <ele>11.711161</ele>
        <time>2020-09-27T15:50:16.897Z</time>
      </trkpt>
      <trkpt lat="49.18031" lon="1.35463">
        <ele>11.486345</ele>
        <time>2020-09-27T15:50:24.366Z</time>
      </trkpt>
      <trkpt lat="49.18135" lon="1.35561">
        <ele>11.187917</ele>
        <time>2020-09-27T15:50:52.997Z</time>
      </trkpt>
      <trkpt lat="49.18184" lon="1.35621">
        <ele>11.22362</ele>
        <time>2020-09-27T15:51:08.439Z</time>
      </trkpt>
      <trkpt lat="49.18173" lon="1.35621">
        <ele>11.229855</ele>
        <time>2020-09-27T15:51:12.299Z</time>
      </trkpt>
      <trkpt lat="49.18126" lon="1.35578">
        <ele>11.238884</ele>
        <time>2020-09-27T15:51:33.838Z</time>
      </trkpt>
      <trkpt lat="49.18122" lon="1.35609">
        <ele>11.229379</ele>
        <time>2020-09-27T15:51:41.509Z</time>
      </trkpt>
      <trkpt lat="49.18085" lon="1.35718">
        <ele>11.191678</ele>
        <time>2020-09-27T15:52:11.678Z</time>
      </trkpt>
      <trkpt lat="49.18053" lon="1.35809">
        <ele>11.189804</ele>
        <time>2020-09-27T15:52:38.044Z</time>
      </trkpt>
      <trkpt lat="49.18039" lon="1.35846">
        <ele>11.255509</ele>
        <time>2020-09-27T15:52:49.277Z</time>
      </trkpt>
      <trkpt lat="49.18015" lon="1.35966">
        <ele>11.450019</ele>
        <time>2020-09-27T15:53:22.412Z</time>
      </trkpt>
      <trkpt lat="49.17963" lon="1.36151">
        <ele>11.823578</ele>
        <time>2020-09-27T15:54:13.849Z</time>
      </trkpt>
      <trkpt lat="49.1788" lon="1.3666">
        <ele>13.381564</ele>
        <time>2020-09-27T15:56:33.765Z</time>
      </trkpt>
      <trkpt lat="49.17879" lon="1.36675">
        <ele>13.449215</ele>
        <time>2020-09-27T15:56:38.046Z</time>
      </trkpt>
      <trkpt lat="49.17857" lon="1.36759">
        <ele>13.884613</ele>
        <time>2020-09-27T15:56:55.367Z</time>
      </trkpt>
      <trkpt lat="49.17854" lon="1.3678">
        <ele>13.989738</ele>
        <time>2020-09-27T15:57:02.036Z</time>
      </trkpt>
      <trkpt lat="49.17763" lon="1.37113">
        <ele>15.631313</ele>
        <time>2020-09-27T15:58:42.908Z</time>
      </trkpt>
      <trkpt lat="49.17754" lon="1.37147">
        <ele>15.661679</ele>
        <time>2020-09-27T15:58:52.627Z</time>
      </trkpt>
      <trkpt lat="49.17722" lon="1.37259">
        <ele>15.762604</ele>
        <time>2020-09-27T15:59:23.872Z</time>
      </trkpt>
      <trkpt lat="49.17658" lon="1.37484">
        <ele>15.597182</ele>
        <time>2020-09-27T16:00:23.876Z</time>
      </trkpt>
      <trkpt lat="49.17575" lon="1.37696">
        <ele>15.263596</ele>
        <time>2020-09-27T16:01:24.257Z</time>
      </trkpt>
      <trkpt lat="49.1756" lon="1.37722">
        <ele>15.225135</ele>
        <time>2020-09-27T16:01:32.719Z</time>
      </trkpt>
      <trkpt lat="49.17537" lon="1.37794">
        <ele>15.135656</ele>
        <time>2020-09-27T16:01:52.551Z</time>
      </trkpt>
      <trkpt lat="49.17492" lon="1.37987">
        <ele>15.06646</ele>
        <time>2020-09-27T16:02:43.202Z</time>
      </trkpt>
      <trkpt lat="49.17329" lon="1.38375">
        <ele>15.687423</ele>
        <time>2020-09-27T16:04:39.943Z</time>
      </trkpt>
      <trkpt lat="49.17332" lon="1.3841">
        <ele>15.91857</ele>
        <time>2020-09-27T16:04:49.041Z</time>
      </trkpt>
      <trkpt lat="49.17336" lon="1.38413">
        <ele>15.968965</ele>
        <time>2020-09-27T16:04:51.405Z</time>
      </trkpt>
      <trkpt lat="49.17334" lon="1.38419">
        <ele>16.010345</ele>
        <time>2020-09-27T16:04:52.351Z</time>
      </trkpt>
      <trkpt lat="49.17329" lon="1.38449">
        <ele>16.211256</ele>
        <time>2020-09-27T16:04:57.465Z</time>
      </trkpt>
      <trkpt lat="49.17301" lon="1.38518">
        <ele>16.740561</ele>
        <time>2020-09-27T16:05:14.540Z</time>
      </trkpt>
      <trkpt lat="49.17231" lon="1.38663">
        <ele>21.843075</ele>
        <time>2020-09-27T16:06:05.332Z</time>
      </trkpt>
      <trkpt lat="49.17222" lon="1.38677">
        <ele>22.483126</ele>
        <time>2020-09-27T16:06:10.581Z</time>
      </trkpt>
      <trkpt lat="49.17227" lon="1.38697">
        <ele>23.197989</ele>
        <time>2020-09-27T16:06:23.008Z</time>
      </trkpt>
      <trkpt lat="49.17233" lon="1.38708">
        <ele>23.674545</ele>
        <time>2020-09-27T16:06:30.765Z</time>
      </trkpt>
      <trkpt lat="49.17241" lon="1.38764">
        <ele>25.578777</ele>
        <time>2020-09-27T16:07:02.257Z</time>
      </trkpt>
      <trkpt lat="49.17234" lon="1.38789">
        <ele>26.762956</ele>
        <time>2020-09-27T16:07:16.981Z</time>
      </trkpt>
      <trkpt lat="49.17227" lon="1.38813">
        <ele>28.248881</ele>
        <time>2020-09-27T16:07:35.191Z</time>
      </trkpt>
      <trkpt lat="49.17227" lon="1.38826">
        <ele>28.960798</ele>
        <time>2020-09-27T16:07:41.275Z</time>
      </trkpt>
      <trkpt lat="49.17232" lon="1.38834">
        <ele>29.631202</ele>
        <time>2020-09-27T16:07:47.826Z</time>
      </trkpt>
      <trkpt lat="49.17234" lon="1.38845">
        <ele>30.275784</ele>
        <time>2020-09-27T16:07:56.411Z</time>
      </trkpt>
      <trkpt lat="49.17243" lon="1.38861">
        <ele>31.505381</ele>
        <time>2020-09-27T16:08:11.874Z</time>
      </trkpt>
      <trkpt lat="49.17253" lon="1.38868">
        <ele>32.415246</ele>
        <time>2020-09-27T16:08:19.905Z</time>
      </trkpt>
      <trkpt lat="49.17272" lon="1.3886">
        <ele>34.145603</ele>
        <time>2020-09-27T16:08:42.405Z</time>
      </trkpt>
      <trkpt lat="49.17281" lon="1.38867">
        <ele>35.076776</ele>
        <time>2020-09-27T16:08:51.736Z</time>
      </trkpt>
      <trkpt lat="49.17338" lon="1.38914">
        <ele>40.732229</ele>
        <time>2020-09-27T16:09:49.941Z</time>
      </trkpt>
      <trkpt lat="49.17378" lon="1.3899">
        <ele>43.925193</ele>
        <time>2020-09-27T16:10:39.862Z</time>
      </trkpt>
      <trkpt lat="49.1738" lon="1.38974">
        <ele>44.382385</ele>
        <time>2020-09-27T16:10:46.935Z</time>
      </trkpt>
      <trkpt lat="49.17374" lon="1.38937">
        <ele>45.368319</ele>
        <time>2020-09-27T16:11:03.268Z</time>
      </trkpt>
      <trkpt lat="49.17369" lon="1.38931">
        <ele>45.624244</ele>
        <time>2020-09-27T16:11:07.019Z</time>
      </trkpt>
      <trkpt lat="49.17332" lon="1.38858">
        <ele>48.047394</ele>
        <time>2020-09-27T16:11:39.948Z</time>
      </trkpt>
      <trkpt lat="49.17369" lon="1.38931">
        <ele>49.186498</ele>
        <time>2020-09-27T16:12:05.875Z</time>
      </trkpt>
      <trkpt lat="49.17374" lon="1.38937">
        <ele>49.200014</ele>
        <time>2020-09-27T16:12:08.506Z</time>
      </trkpt>
      <trkpt lat="49.1738" lon="1.38974">
        <ele>49.252082</ele>
        <time>2020-09-27T16:12:18.178Z</time>
      </trkpt>
      <trkpt lat="49.17378" lon="1.3899">
        <ele>49.276226</ele>
        <time>2020-09-27T16:12:22.748Z</time>
      </trkpt>
      <trkpt lat="49.17379" lon="1.38993">
        <ele>49.279953</ele>
        <time>2020-09-27T16:12:23.592Z</time>
      </trkpt>
      <trkpt lat="49.17401" lon="1.39043">
        <ele>49.365164</ele>
        <time>2020-09-27T16:12:39.275Z</time>
      </trkpt>
      <trkpt lat="49.17415" lon="1.39047">
        <ele>49.393729</ele>
        <time>2020-09-27T16:12:44.447Z</time>
      </trkpt>
      <trkpt lat="49.17421" lon="1.39043">
        <ele>49.408281</ele>
        <time>2020-09-27T16:12:47.578Z</time>
      </trkpt>
      <trkpt lat="49.17423" lon="1.3904">
        <ele>49.413779</ele>
        <time>2020-09-27T16:12:48.556Z</time>
      </trkpt>
      <trkpt lat="49.17514" lon="1.38959">
        <ele>49.173626</ele>
        <time>2020-09-27T16:13:26.145Z</time>
      </trkpt>
      <trkpt lat="49.17522" lon="1.38953">
        <ele>49.128448</ele>
        <time>2020-09-27T16:13:29.077Z</time>
      </trkpt>
      <trkpt lat="49.17524" lon="1.38969">
        <ele>49.076881</ele>
        <time>2020-09-27T16:13:31.052Z</time>
      </trkpt>
      <trkpt lat="49.1753" lon="1.39048">
        <ele>48.825233</ele>
        <time>2020-09-27T16:13:41.834Z</time>
      </trkpt>
      <trkpt lat="49.17531" lon="1.39053">
        <ele>48.80915</ele>
        <time>2020-09-27T16:13:42.397Z</time>
      </trkpt>
      <trkpt lat="49.17546" lon="1.392">
        <ele>51.013193</ele>
        <time>2020-09-27T16:14:25.301Z</time>
      </trkpt>
      <trkpt lat="49.17584" lon="1.39185">
        <ele>52.603859</ele>
        <time>2020-09-27T16:14:48.724Z</time>
      </trkpt>
      <trkpt lat="49.17639" lon="1.39114">
        <ele>55.517225</ele>
        <time>2020-09-27T16:15:31.500Z</time>
      </trkpt>
      <trkpt lat="49.17729" lon="1.39008">
        <ele>64.878934</ele>
        <time>2020-09-27T16:16:57.177Z</time>
      </trkpt>
      <trkpt lat="49.17745" lon="1.3902">
        <ele>66.42186</ele>
        <time>2020-09-27T16:17:12.256Z</time>
      </trkpt>
      <trkpt lat="49.17821" lon="1.39179">
        <ele>78.119487</ele>
        <time>2020-09-27T16:18:55.929Z</time>
      </trkpt>
      <trkpt lat="49.17879" lon="1.39282">
        <ele>86.438063</ele>
        <time>2020-09-27T16:20:07.595Z</time>
      </trkpt>
      <trkpt lat="49.17944" lon="1.39368">
        <ele>94.051972</ele>
        <time>2020-09-27T16:21:17.473Z</time>
      </trkpt>
      <trkpt lat="49.18096" lon="1.39539">
        <ele>108.892948</ele>
        <time>2020-09-27T16:23:37.451Z</time>
      </trkpt>
      <trkpt lat="49.18276" lon="1.39658">
        <ele>119.344183</ele>
        <time>2020-09-27T16:25:27.323Z</time>
      </trkpt>
      <trkpt lat="49.18752" lon="1.39879">
        <ele>131.745907</ele>
        <time>2020-09-27T16:28:42.494Z</time>
      </trkpt>
      <trkpt lat="49.19078" lon="1.40058">
        <ele>130.389331</ele>
        <time>2020-09-27T16:29:58.948Z</time>
      </trkpt>
      <trkpt lat="49.19159" lon="1.40096">
        <ele>129.617677</ele>
        <time>2020-09-27T16:30:16.980Z</time>
      </trkpt>
      <trkpt lat="49.1925" lon="1.40179">
        <ele>129.227159</ele>
        <time>2020-09-27T16:30:40.511Z</time>
      </trkpt>
      <trkpt lat="49.19255" lon="1.40184">
        <ele>129.246726</ele>
        <time>2020-09-27T16:30:41.847Z</time>
      </trkpt>
      <trkpt lat="49.19345" lon="1.40328">
        <ele>129.683237</ele>
        <time>2020-09-27T16:31:18.315Z</time>
      </trkpt>
      <trkpt lat="49.19462" lon="1.40433">
        <ele>131.323053</ele>
        <time>2020-09-27T16:32:02.631Z</time>
      </trkpt>
      <trkpt lat="49.19656" lon="1.40572">
        <ele>133.535063</ele>
        <time>2020-09-27T16:33:08.333Z</time>
      </trkpt>
      <trkpt lat="49.19794" lon="1.40628">
        <ele>134.263238</ele>
        <time>2020-09-27T16:33:46.625Z</time>
      </trkpt>
      <trkpt lat="49.19957" lon="1.40712">
        <ele>134.952642</ele>
        <time>2020-09-27T16:34:32.951Z</time>
      </trkpt>
      <trkpt lat="49.20027" lon="1.40528">
        <ele>135.054172</ele>
        <time>2020-09-27T16:35:09.109Z</time>
      </trkpt>
      <trkpt lat="49.2017" lon="1.40172">
        <ele>133.954484</ele>
        <time>2020-09-27T16:36:11.421Z</time>
      </trkpt>
      <trkpt lat="49.2017" lon="1.40141">
        <ele>133.531255</ele>
        <time>2020-09-27T16:36:15.918Z</time>
      </trkpt>
      <trkpt lat="49.20159" lon="1.40093">
        <ele>132.835623</ele>
        <time>2020-09-27T16:36:22.865Z</time>
      </trkpt>
      <trkpt lat="49.20163" lon="1.40049">
        <ele>132.2402</ele>
        <time>2020-09-27T16:36:28.682Z</time>
      </trkpt>
      <trkpt lat="49.20191" lon="1.39948">
        <ele>130.763135</ele>
        <time>2020-09-27T16:36:42.757Z</time>
      </trkpt>
      <trkpt lat="49.20191" lon="1.39914">
        <ele>130.293565</ele>
        <time>2020-09-27T16:36:46.953Z</time>
      </trkpt>
      <trkpt lat="49.20187" lon="1.39897">
        <ele>129.734482</ele>
        <time>2020-09-27T16:36:49.003Z</time>
      </trkpt>
      <trkpt lat="49.2018" lon="1.39873">
        <ele>128.771238</ele>
        <time>2020-09-27T16:36:51.933Z</time>
      </trkpt>
      <trkpt lat="49.20153" lon="1.39824">
        <ele>126.361606</ele>
        <time>2020-09-27T16:36:59.303Z</time>
      </trkpt>
      <trkpt lat="49.2013" lon="1.39764">
        <ele>123.767665</ele>
        <time>2020-09-27T16:37:06.982Z</time>
      </trkpt>
      <trkpt lat="49.20127" lon="1.39727">
        <ele>122.38886</ele>
        <time>2020-09-27T16:37:10.970Z</time>
      </trkpt>
      <trkpt lat="49.20136" lon="1.39691">
        <ele>120.932781</ele>
        <time>2020-09-27T16:37:15.103Z</time>
      </trkpt>
      <trkpt lat="49.20223" lon="1.39531">
        <ele>108.227635</ele>
        <time>2020-09-27T16:37:36.261Z</time>
      </trkpt>
      <trkpt lat="49.20245" lon="1.39467">
        <ele>103.596667</ele>
        <time>2020-09-27T16:37:43.362Z</time>
      </trkpt>
      <trkpt lat="49.20296" lon="1.39211">
        <ele>81.525709</ele>
        <time>2020-09-27T16:38:09.158Z</time>
      </trkpt>
      <trkpt lat="49.20323" lon="1.38976">
        <ele>63.79911</ele>
        <time>2020-09-27T16:38:32.261Z</time>
      </trkpt>
      <trkpt lat="49.20335" lon="1.38919">
        <ele>59.355526</ele>
        <time>2020-09-27T16:38:38.408Z</time>
      </trkpt>
      <trkpt lat="49.20368" lon="1.38807">
        <ele>57.548883</ele>
        <time>2020-09-27T16:38:51.959Z</time>
      </trkpt>
      <trkpt lat="49.20369" lon="1.38804">
        <ele>57.506485</ele>
        <time>2020-09-27T16:38:52.273Z</time>
      </trkpt>
      <trkpt lat="49.20376" lon="1.38787">
        <ele>57.256348</ele>
        <time>2020-09-27T16:38:54.883Z</time>
      </trkpt>
      <trkpt lat="49.20369" lon="1.38804">
        <ele>57.006212</ele>
        <time>2020-09-27T16:38:57.860Z</time>
      </trkpt>
      <trkpt lat="49.20603" lon="1.38904">
        <ele>60.958548</ele>
        <time>2020-09-27T16:40:44.733Z</time>
      </trkpt>
      <trkpt lat="49.20666" lon="1.38918">
        <ele>61.895199</ele>
        <time>2020-09-27T16:41:11.312Z</time>
      </trkpt>
      <trkpt lat="49.20685" lon="1.38926">
        <ele>62.112868</ele>
        <time>2020-09-27T16:41:20.570Z</time>
      </trkpt>
      <trkpt lat="49.20752" lon="1.3897">
        <ele>62.922767</ele>
        <time>2020-09-27T16:41:50.013Z</time>
      </trkpt>
      <trkpt lat="49.2084" lon="1.38996">
        <ele>63.584295</ele>
        <time>2020-09-27T16:42:22.432Z</time>
      </trkpt>
      <trkpt lat="49.20914" lon="1.39034">
        <ele>63.976825</ele>
        <time>2020-09-27T16:42:54.209Z</time>
      </trkpt>
      <trkpt lat="49.20976" lon="1.3907">
        <ele>64.510901</ele>
        <time>2020-09-27T16:43:25.456Z</time>
      </trkpt>
      <trkpt lat="49.21136" lon="1.39087">
        <ele>67.056382</ele>
        <time>2020-09-27T16:44:47.366Z</time>
      </trkpt>
      <trkpt lat="49.21264" lon="1.39156">
        <ele>65.669698</ele>
        <time>2020-09-27T16:45:34.338Z</time>
      </trkpt>
      <trkpt lat="49.21309" lon="1.39182">
        <ele>65.17784</ele>
        <time>2020-09-27T16:45:49.780Z</time>
      </trkpt>
      <trkpt lat="49.2134" lon="1.39204">
        <ele>64.771829</ele>
        <time>2020-09-27T16:46:01.128Z</time>
      </trkpt>
      <trkpt lat="49.21376" lon="1.39235">
        <ele>64.280072</ele>
        <time>2020-09-27T16:46:15.358Z</time>
      </trkpt>
      <trkpt lat="49.21389" lon="1.39274">
        <ele>63.942905</ele>
        <time>2020-09-27T16:46:25.486Z</time>
      </trkpt>
      <trkpt lat="49.21408" lon="1.39304">
        <ele>63.622375</ele>
        <time>2020-09-27T16:46:35.096Z</time>
      </trkpt>
      <trkpt lat="49.21451" lon="1.39329">
        <ele>63.062737</ele>
        <time>2020-09-27T16:46:51.382Z</time>
      </trkpt>
      <trkpt lat="49.21466" lon="1.39329">
        <ele>62.762386</ele>
        <time>2020-09-27T16:46:57.130Z</time>
      </trkpt>
      <trkpt lat="49.21516" lon="1.39355">
        <ele>61.670833</ele>
        <time>2020-09-27T16:47:16.953Z</time>
      </trkpt>
      <trkpt lat="49.21532" lon="1.39357">
        <ele>61.340289</ele>
        <time>2020-09-27T16:47:22.684Z</time>
      </trkpt>
      <trkpt lat="49.2163" lon="1.39425">
        <ele>58.485596</ele>
        <time>2020-09-27T16:47:56.543Z</time>
      </trkpt>
      <trkpt lat="49.21659" lon="1.39434">
        <ele>56.385171</ele>
        <time>2020-09-27T16:48:04.901Z</time>
      </trkpt>
      <trkpt lat="49.21692" lon="1.39432">
        <ele>54.04339</ele>
        <time>2020-09-27T16:48:13.871Z</time>
      </trkpt>
      <trkpt lat="49.21726" lon="1.39443">
        <ele>51.597829</ele>
        <time>2020-09-27T16:48:23.113Z</time>
      </trkpt>
      <trkpt lat="49.21774" lon="1.39443">
        <ele>48.204805</ele>
        <time>2020-09-27T16:48:35.868Z</time>
      </trkpt>
      <trkpt lat="49.21815" lon="1.39472">
        <ele>45.265763</ele>
        <time>2020-09-27T16:48:47.746Z</time>
      </trkpt>
      <trkpt lat="49.21833" lon="1.39513">
        <ele>43.338573</ele>
        <time>2020-09-27T16:48:56.223Z</time>
      </trkpt>
      <trkpt lat="49.21882" lon="1.3955">
        <ele>40.034658</ele>
        <time>2020-09-27T16:49:10.823Z</time>
      </trkpt>
      <trkpt lat="49.21918" lon="1.39558">
        <ele>37.883282</ele>
        <time>2020-09-27T16:49:21.194Z</time>
      </trkpt>
      <trkpt lat="49.21931" lon="1.39538">
        <ele>36.771004</ele>
        <time>2020-09-27T16:49:29.610Z</time>
      </trkpt>
      <trkpt lat="49.21936" lon="1.39531">
        <ele>36.371732</ele>
        <time>2020-09-27T16:49:31.326Z</time>
      </trkpt>
      <trkpt lat="49.21946" lon="1.39543">
        <ele>36.060293</ele>
        <time>2020-09-27T16:49:34.902Z</time>
      </trkpt>
      <trkpt lat="49.21962" lon="1.39562">
        <ele>36.704996</ele>
        <time>2020-09-27T16:49:41.659Z</time>
      </trkpt>
      <trkpt lat="49.22014" lon="1.39596">
        <ele>38.505502</ele>
        <time>2020-09-27T16:50:01.812Z</time>
      </trkpt>
      <trkpt lat="49.22016" lon="1.39598">
        <ele>38.602299</ele>
        <time>2020-09-27T16:50:04.100Z</time>
      </trkpt>
      <trkpt lat="49.22002" lon="1.39639">
        <ele>39.579493</ele>
        <time>2020-09-27T16:50:17.212Z</time>
      </trkpt>
      <trkpt lat="49.22" lon="1.39656">
        <ele>39.935475</ele>
        <time>2020-09-27T16:50:26.061Z</time>
      </trkpt>
      <trkpt lat="49.22036" lon="1.39694">
        <ele>41.318294</ele>
        <time>2020-09-27T16:50:55.603Z</time>
      </trkpt>
      <trkpt lat="49.22075" lon="1.39754">
        <ele>43.427974</ele>
        <time>2020-09-27T16:51:37.989Z</time>
      </trkpt>
      <trkpt lat="49.22121" lon="1.3979">
        <ele>45.463629</ele>
        <time>2020-09-27T16:52:19.010Z</time>
      </trkpt>
      <trkpt lat="49.22274" lon="1.39901">
        <ele>47.025776</ele>
        <time>2020-09-27T16:53:34.849Z</time>
      </trkpt>
      <trkpt lat="49.22359" lon="1.39938">
        <ele>45.28932</ele>
        <time>2020-09-27T16:54:01.391Z</time>
      </trkpt>
      <trkpt lat="49.22422" lon="1.39971">
        <ele>41.5444</ele>
        <time>2020-09-27T16:54:19.412Z</time>
      </trkpt>
      <trkpt lat="49.22466" lon="1.3999">
        <ele>38.785776</ele>
        <time>2020-09-27T16:54:32.146Z</time>
      </trkpt>
      <trkpt lat="49.22476" lon="1.39991">
        <ele>38.189834</ele>
        <time>2020-09-27T16:54:34.948Z</time>
      </trkpt>
      <trkpt lat="49.22501" lon="1.39943">
        <ele>35.842254</ele>
        <time>2020-09-27T16:54:46.024Z</time>
      </trkpt>
      <trkpt lat="49.2254" lon="1.39961">
        <ele>34.742274</ele>
        <time>2020-09-27T16:54:52.625Z</time>
      </trkpt>
      <trkpt lat="49.22551" lon="1.3997">
        <ele>34.926309</ele>
        <time>2020-09-27T16:54:54.617Z</time>
      </trkpt>
      <trkpt lat="49.22584" lon="1.39999">
        <ele>35.507881</ele>
        <time>2020-09-27T16:55:01.149Z</time>
      </trkpt>
      <trkpt lat="49.22686" lon="1.40095">
        <ele>38.051312</ele>
        <time>2020-09-27T16:56:01.866Z</time>
      </trkpt>
      <trkpt lat="49.22704" lon="1.40103">
        <ele>39.805718</ele>
        <time>2020-09-27T16:56:14.457Z</time>
      </trkpt>
      <trkpt lat="49.22689" lon="1.40179">
        <ele>44.813873</ele>
        <time>2020-09-27T16:56:55.831Z</time>
      </trkpt>
      <trkpt lat="49.22674" lon="1.40271">
        <ele>50.877159</ele>
        <time>2020-09-27T16:57:50.895Z</time>
      </trkpt>
      <trkpt lat="49.22679" lon="1.4034">
        <ele>55.440464</ele>
        <time>2020-09-27T16:58:36.351Z</time>
      </trkpt>
      <trkpt lat="49.22676" lon="1.40448">
        <ele>63.82626</ele>
        <time>2020-09-27T16:59:44.854Z</time>
      </trkpt>
      <trkpt lat="49.22669" lon="1.40484">
        <ele>66.751087</ele>
        <time>2020-09-27T17:00:08.630Z</time>
      </trkpt>
      <trkpt lat="49.22662" lon="1.40497">
        <ele>68.070937</ele>
        <time>2020-09-27T17:00:19.333Z</time>
      </trkpt>
      <trkpt lat="49.22631" lon="1.40527">
        <ele>72.507947</ele>
        <time>2020-09-27T17:00:55.494Z</time>
      </trkpt>
      <trkpt lat="49.22605" lon="1.40564">
        <ele>76.580346</ele>
        <time>2020-09-27T17:01:28.449Z</time>
      </trkpt>
      <trkpt lat="49.22598" lon="1.4056">
        <ele>77.315134</ele>
        <time>2020-09-27T17:01:35.648Z</time>
      </trkpt>
      <trkpt lat="49.22607" lon="1.40523">
        <ele>79.884421</ele>
        <time>2020-09-27T17:01:58.712Z</time>
      </trkpt>
      <trkpt lat="49.22604" lon="1.40514">
        <ele>80.539154</ele>
        <time>2020-09-27T17:02:04.823Z</time>
      </trkpt>
      <trkpt lat="49.22597" lon="1.40516">
        <ele>81.242503</ele>
        <time>2020-09-27T17:02:11.324Z</time>
      </trkpt>
      <trkpt lat="49.22543" lon="1.40597">
        <ele>88.721416</ele>
        <time>2020-09-27T17:03:14.788Z</time>
      </trkpt>
      <trkpt lat="49.2252" lon="1.4065">
        <ele>92.849159</ele>
        <time>2020-09-27T17:03:47.441Z</time>
      </trkpt>
      <trkpt lat="49.22504" lon="1.40665">
        <ele>94.5518</ele>
        <time>2020-09-27T17:04:01.483Z</time>
      </trkpt>
      <trkpt lat="49.22493" lon="1.4065">
        <ele>95.624161</ele>
        <time>2020-09-27T17:04:12.038Z</time>
      </trkpt>
      <trkpt lat="49.22555" lon="1.40457">
        <ele>106.224256</ele>
        <time>2020-09-27T17:05:46.539Z</time>
      </trkpt>
      <trkpt lat="49.22552" lon="1.40447">
        <ele>106.779176</ele>
        <time>2020-09-27T17:05:51.530Z</time>
      </trkpt>
      <trkpt lat="49.22546" lon="1.40446">
        <ele>107.181149</ele>
        <time>2020-09-27T17:05:55.129Z</time>
      </trkpt>
      <trkpt lat="49.22498" lon="1.40534">
        <ele>113.321899</ele>
        <time>2020-09-27T17:06:48.556Z</time>
      </trkpt>
      <trkpt lat="49.22376" lon="1.40715">
        <ele>126.765059</ele>
        <time>2020-09-27T17:08:58.423Z</time>
      </trkpt>
      <trkpt lat="49.22353" lon="1.40729">
        <ele>128.606405</ele>
        <time>2020-09-27T17:09:16.510Z</time>
      </trkpt>
      <trkpt lat="49.22336" lon="1.40733">
        <ele>129.802373</ele>
        <time>2020-09-27T17:09:28.476Z</time>
      </trkpt>
      <trkpt lat="49.22294" lon="1.40743">
        <ele>132.89455</ele>
        <time>2020-09-27T17:09:56.062Z</time>
      </trkpt>
      <trkpt lat="49.22267" lon="1.40786">
        <ele>135.632424</ele>
        <time>2020-09-27T17:10:19.274Z</time>
      </trkpt>
      <trkpt lat="49.2224" lon="1.40878">
        <ele>137.871702</ele>
        <time>2020-09-27T17:10:52.441Z</time>
      </trkpt>
      <trkpt lat="49.22196" lon="1.40952">
        <ele>140.115599</ele>
        <time>2020-09-27T17:11:19.479Z</time>
      </trkpt>
      <trkpt lat="49.22181" lon="1.40989">
        <ele>141.094064</ele>
        <time>2020-09-27T17:11:30.221Z</time>
      </trkpt>
      <trkpt lat="49.2217" lon="1.41022">
        <ele>141.792335</ele>
        <time>2020-09-27T17:11:38.970Z</time>
      </trkpt>
      <trkpt lat="49.22164" lon="1.41053">
        <ele>142.162898</ele>
        <time>2020-09-27T17:11:46.515Z</time>
      </trkpt>
      <trkpt lat="49.22401" lon="1.41213">
        <ele>146.664966</ele>
        <time>2020-09-27T17:13:50.812Z</time>
      </trkpt>
      <trkpt lat="49.22425" lon="1.41266">
        <ele>147.386523</ele>
        <time>2020-09-27T17:14:11.348Z</time>
      </trkpt>
      <trkpt lat="49.22442" lon="1.4132">
        <ele>148.08055</ele>
        <time>2020-09-27T17:14:30.857Z</time>
      </trkpt>
      <trkpt lat="49.2248" lon="1.41371">
        <ele>149.014838</ele>
        <time>2020-09-27T17:14:55.791Z</time>
      </trkpt>
      <trkpt lat="49.22516" lon="1.41436">
        <ele>150.041571</ele>
        <time>2020-09-27T17:15:23.260Z</time>
      </trkpt>
      <trkpt lat="49.22528" lon="1.41493">
        <ele>150.764158</ele>
        <time>2020-09-27T17:15:42.672Z</time>
      </trkpt>
      <trkpt lat="49.22559" lon="1.41545">
        <ele>151.600919</ele>
        <time>2020-09-27T17:16:05.179Z</time>
      </trkpt>
      <trkpt lat="49.22609" lon="1.41604">
        <ele>152.734777</ele>
        <time>2020-09-27T17:16:35.865Z</time>
      </trkpt>
      <trkpt lat="49.22644" lon="1.41597">
        <ele>153.366071</ele>
        <time>2020-09-27T17:16:52.994Z</time>
      </trkpt>
      <trkpt lat="49.22724" lon="1.41612">
        <ele>154.705709</ele>
        <time>2020-09-27T17:17:33.085Z</time>
      </trkpt>
      <trkpt lat="49.22812" lon="1.41593">
        <ele>155.809812</ele>
        <time>2020-09-27T17:18:15.364Z</time>
      </trkpt>
      <trkpt lat="49.22817" lon="1.41591">
        <ele>155.87159</ele>
        <time>2020-09-27T17:18:18.154Z</time>
      </trkpt>
      <trkpt lat="49.22949" lon="1.4154">
        <ele>156.186118</ele>
        <time>2020-09-27T17:19:13.401Z</time>
      </trkpt>
      <trkpt lat="49.22972" lon="1.41544">
        <ele>156.014573</ele>
        <time>2020-09-27T17:19:21.837Z</time>
      </trkpt>
      <trkpt lat="49.23192" lon="1.41584">
        <ele>152.290967</ele>
        <time>2020-09-27T17:20:35.825Z</time>
      </trkpt>
      <trkpt lat="49.23262" lon="1.41614">
        <ele>149.594871</ele>
        <time>2020-09-27T17:20:58.340Z</time>
      </trkpt>
      <trkpt lat="49.23271" lon="1.41613">
        <ele>149.067786</ele>
        <time>2020-09-27T17:21:00.916Z</time>
      </trkpt>
      <trkpt lat="49.23267" lon="1.41608">
        <ele>148.750403</ele>
        <time>2020-09-27T17:21:02.480Z</time>
      </trkpt>
      <trkpt lat="49.23289" lon="1.4154">
        <ele>145.811762</ele>
        <time>2020-09-27T17:21:16.766Z</time>
      </trkpt>
      <trkpt lat="49.23291" lon="1.41484">
        <ele>143.634333</ele>
        <time>2020-09-27T17:21:26.963Z</time>
      </trkpt>
      <trkpt lat="49.23294" lon="1.41433">
        <ele>141.624314</ele>
        <time>2020-09-27T17:21:36.156Z</time>
      </trkpt>
      <trkpt lat="49.23275" lon="1.4133">
        <ele>135.884785</ele>
        <time>2020-09-27T17:21:54.223Z</time>
      </trkpt>
      <trkpt lat="49.23234" lon="1.41228">
        <ele>128.798048</ele>
        <time>2020-09-27T17:22:14.823Z</time>
      </trkpt>
      <trkpt lat="49.23212" lon="1.41171">
        <ele>124.882571</ele>
        <time>2020-09-27T17:22:26.048Z</time>
      </trkpt>
      <trkpt lat="49.2321" lon="1.41124">
        <ele>122.842138</ele>
        <time>2020-09-27T17:22:34.327Z</time>
      </trkpt>
      <trkpt lat="49.23218" lon="1.41083">
        <ele>121.173528</ele>
        <time>2020-09-27T17:22:41.792Z</time>
      </trkpt>
      <trkpt lat="49.2323" lon="1.41061">
        <ele>120.044178</ele>
        <time>2020-09-27T17:22:46.761Z</time>
      </trkpt>
      <trkpt lat="49.23246" lon="1.41035">
        <ele>118.675562</ele>
        <time>2020-09-27T17:22:53.265Z</time>
      </trkpt>
      <trkpt lat="49.23223" lon="1.40978">
        <ele>116.093852</ele>
        <time>2020-09-27T17:23:05.222Z</time>
      </trkpt>
      <trkpt lat="49.23196" lon="1.40907">
        <ele>113.787237</ele>
        <time>2020-09-27T17:23:23.067Z</time>
      </trkpt>
      <trkpt lat="49.23176" lon="1.40884">
        <ele>114.330463</ele>
        <time>2020-09-27T17:23:31.544Z</time>
      </trkpt>
      <trkpt lat="49.23168" lon="1.40856">
        <ele>114.755927</ele>
        <time>2020-09-27T17:23:39.707Z</time>
      </trkpt>
      <trkpt lat="49.23167" lon="1.40825">
        <ele>115.183496</ele>
        <time>2020-09-27T17:23:46.740Z</time>
      </trkpt>
      <trkpt lat="49.23172" lon="1.40804">
        <ele>115.498196</ele>
        <time>2020-09-27T17:23:52.747Z</time>
      </trkpt>
      <trkpt lat="49.23191" lon="1.40795">
        <ele>115.931211</ele>
        <time>2020-09-27T17:24:03.298Z</time>
      </trkpt>
      <trkpt lat="49.23219" lon="1.40793">
        <ele>116.515331</ele>
        <time>2020-09-27T17:24:21.858Z</time>
      </trkpt>
      <trkpt lat="49.23274" lon="1.40811">
        <ele>118.645958</ele>
        <time>2020-09-27T17:25:06.444Z</time>
      </trkpt>
      <trkpt lat="49.23295" lon="1.40833">
        <ele>120.688537</ele>
        <time>2020-09-27T17:25:29.461Z</time>
      </trkpt>
      <trkpt lat="49.23303" lon="1.40857">
        <ele>122.080916</ele>
        <time>2020-09-27T17:25:44.527Z</time>
      </trkpt>
      <trkpt lat="49.23301" lon="1.40923">
        <ele>125.549365</ele>
        <time>2020-09-27T17:26:24.508Z</time>
      </trkpt>
      <trkpt lat="49.23301" lon="1.40925">
        <ele>125.659452</ele>
        <time>2020-09-27T17:26:26.946Z</time>
      </trkpt>
      <trkpt lat="49.23307" lon="1.40943">
        <ele>126.657262</ele>
        <time>2020-09-27T17:26:38.097Z</time>
      </trkpt>
      <trkpt lat="49.23341" lon="1.40971">
        <ele>129.750701</ele>
        <time>2020-09-27T17:27:12.509Z</time>
      </trkpt>
      <trkpt lat="49.23386" lon="1.40964">
        <ele>133.002193</ele>
        <time>2020-09-27T17:27:49.073Z</time>
      </trkpt>
      <trkpt lat="49.23444" lon="1.40946">
        <ele>136.654695</ele>
        <time>2020-09-27T17:28:33.899Z</time>
      </trkpt>
      <trkpt lat="49.23484" lon="1.40907">
        <ele>139.534056</ele>
        <time>2020-09-27T17:29:09.843Z</time>
      </trkpt>
      <trkpt lat="49.23525" lon="1.40855">
        <ele>142.810957</ele>
        <time>2020-09-27T17:29:48.353Z</time>
      </trkpt>
      <trkpt lat="49.23556" lon="1.40824">
        <ele>143.751805</ele>
        <time>2020-09-27T17:30:13.061Z</time>
      </trkpt>
      <trkpt lat="49.23571" lon="1.40871">
        <ele>144.604403</ele>
        <time>2020-09-27T17:30:32.463Z</time>
      </trkpt>
      <trkpt lat="49.23592" lon="1.40823">
        <ele>145.540105</ele>
        <time>2020-09-27T17:30:51.743Z</time>
      </trkpt>
      <trkpt lat="49.23617" lon="1.40744">
        <ele>146.968512</ele>
        <time>2020-09-27T17:31:19.522Z</time>
      </trkpt>
      <trkpt lat="49.23654" lon="1.40725">
        <ele>146.149774</ele>
        <time>2020-09-27T17:31:35.247Z</time>
      </trkpt>
      <trkpt lat="49.23722" lon="1.40705">
        <ele>143.165874</ele>
        <time>2020-09-27T17:31:57.860Z</time>
      </trkpt>
      <trkpt lat="49.238" lon="1.40741">
        <ele>139.645534</ele>
        <time>2020-09-27T17:32:20.049Z</time>
      </trkpt>
      <trkpt lat="49.23811" lon="1.40751">
        <ele>139.520014</ele>
        <time>2020-09-27T17:32:23.001Z</time>
      </trkpt>
      <trkpt lat="49.23837" lon="1.40751">
        <ele>139.520014</ele>
        <time>2020-09-27T17:32:29.854Z</time>
      </trkpt>
      <trkpt lat="49.2387" lon="1.40767">
        <ele>139.520014</ele>
        <time>2020-09-27T17:32:38.749Z</time>
      </trkpt>
      <trkpt lat="49.23889" lon="1.40697">
        <ele>139.520014</ele>
        <time>2020-09-27T17:32:46.335Z</time>
      </trkpt>
      <trkpt lat="49.23906" lon="1.40654">
        <ele>139.520014</ele>
        <time>2020-09-27T17:32:51.370Z</time>
      </trkpt>
      <trkpt lat="49.23915" lon="1.40638">
        <ele>139.520014</ele>
        <time>2020-09-27T17:32:54.260Z</time>
      </trkpt>
    </trkseg>
  </trk>
</gpx>